sensor_id;sensor_type;location;lat;lon;timestamp;P1;durP1;ratioP1;P2;durP2;ratioP2
12660;SDS011;39039;51.802;5.710;2022-11-21T00:01:14;45.30;;;21.13;;
12660;SDS011;39039;51.802;5.710;2022-11-21T00:03:41;41.23;;;20.17;;
12660;SDS011;39039;51.802;5.710;2022-11-21T00:06:08;49.63;;;21.47;;
12660;SDS011;39039;51.802;5.710;2022-11-21T00:08:35;44.87;;;21.13;;
12660;SDS011;39039;51.802;5.710;2022-11-21T00:11:03;39.37;;;18.93;;
12660;SDS011;39039;51.802;5.710;2022-11-21T00:13:30;46.70;;;20.27;;
12660;SDS011;39039;51.802;5.710;2022-11-21T00:16:05;47.70;;;22.27;;
12660;SDS011;39039;51.802;5.710;2022-11-21T00:18:33;53.70;;;22.63;;
12660;SDS011;39039;51.802;5.710;2022-11-21T00:21:04;40.40;;;19.40;;
12660;SDS011;39039;51.802;5.710;2022-11-21T00:23:31;48.57;;;22.67;;
12660;SDS011;39039;51.802;5.710;2022-11-21T00:25:58;51.43;;;21.80;;
12660;SDS011;39039;51.802;5.710;2022-11-21T00:28:28;44.27;;;21.20;;
12660;SDS011;39039;51.802;5.710;2022-11-21T00:30:55;49.23;;;21.90;;
12660;SDS011;39039;51.802;5.710;2022-11-21T00:33:24;48.63;;;21.37;;
12660;SDS011;39039;51.802;5.710;2022-11-21T00:35:51;50.33;;;22.93;;
12660;SDS011;39039;51.802;5.710;2022-11-21T00:38:18;55.07;;;23.00;;
12660;SDS011;39039;51.802;5.710;2022-11-21T00:40:45;46.03;;;20.30;;
12660;SDS011;39039;51.802;5.710;2022-11-21T00:43:12;47.83;;;22.73;;
12660;SDS011;39039;51.802;5.710;2022-11-21T00:45:41;49.83;;;23.33;;
12660;SDS011;39039;51.802;5.710;2022-11-21T00:48:08;54.83;;;22.40;;
12660;SDS011;39039;51.802;5.710;2022-11-21T00:50:36;47.67;;;21.43;;
12660;SDS011;39039;51.802;5.710;2022-11-21T00:53:03;47.63;;;21.87;;
12660;SDS011;39039;51.802;5.710;2022-11-21T00:55:33;58.87;;;24.17;;
12660;SDS011;39039;51.802;5.710;2022-11-21T00:58:01;54.50;;;22.77;;
12660;SDS011;39039;51.802;5.710;2022-11-21T01:00:28;61.10;;;23.57;;
12660;SDS011;39039;51.802;5.710;2022-11-21T01:02:56;56.57;;;23.57;;
12660;SDS011;39039;51.802;5.710;2022-11-21T01:05:23;56.10;;;24.30;;
12660;SDS011;39039;51.802;5.710;2022-11-21T01:07:52;53.23;;;23.10;;
12660;SDS011;39039;51.802;5.710;2022-11-21T01:10:19;52.13;;;23.13;;
12660;SDS011;39039;51.802;5.710;2022-11-21T01:12:46;55.00;;;23.83;;
12660;SDS011;39039;51.802;5.710;2022-11-21T01:15:13;52.43;;;23.90;;
12660;SDS011;39039;51.802;5.710;2022-11-21T01:17:40;59.13;;;24.83;;
12660;SDS011;39039;51.802;5.710;2022-11-21T01:20:08;59.00;;;25.23;;
12660;SDS011;39039;51.802;5.710;2022-11-21T01:22:35;61.30;;;22.40;;
12660;SDS011;39039;51.802;5.710;2022-11-21T01:25:03;60.80;;;25.00;;
12660;SDS011;39039;51.802;5.710;2022-11-21T01:27:30;60.47;;;23.97;;
12660;SDS011;39039;51.802;5.710;2022-11-21T01:29:58;65.73;;;24.47;;
12660;SDS011;39039;51.802;5.710;2022-11-21T01:32:25;56.23;;;24.10;;
12660;SDS011;39039;51.802;5.710;2022-11-21T01:34:52;57.77;;;22.90;;
12660;SDS011;39039;51.802;5.710;2022-11-21T01:37:19;60.70;;;24.37;;
12660;SDS011;39039;51.802;5.710;2022-11-21T01:39:46;75.87;;;28.17;;
12660;SDS011;39039;51.802;5.710;2022-11-21T01:42:17;63.87;;;25.03;;
12660;SDS011;39039;51.802;5.710;2022-11-21T01:44:45;85.47;;;26.73;;
12660;SDS011;39039;51.802;5.710;2022-11-21T01:47:12;93.13;;;28.53;;
12660;SDS011;39039;51.802;5.710;2022-11-21T01:49:39;76.13;;;25.23;;
12660;SDS011;39039;51.802;5.710;2022-11-21T01:52:11;66.00;;;24.97;;
12660;SDS011;39039;51.802;5.710;2022-11-21T01:54:42;65.40;;;24.63;;
12660;SDS011;39039;51.802;5.710;2022-11-21T01:57:11;55.77;;;22.20;;
12660;SDS011;39039;51.802;5.710;2022-11-21T01:59:41;52.80;;;21.63;;
12660;SDS011;39039;51.802;5.710;2022-11-21T02:02:12;55.90;;;22.97;;
12660;SDS011;39039;51.802;5.710;2022-11-21T02:04:42;61.13;;;23.33;;
12660;SDS011;39039;51.802;5.710;2022-11-21T02:07:13;56.57;;;22.97;;
12660;SDS011;39039;51.802;5.710;2022-11-21T02:09:41;64.93;;;22.40;;
12660;SDS011;39039;51.802;5.710;2022-11-21T02:12:12;49.47;;;20.53;;
12660;SDS011;39039;51.802;5.710;2022-11-21T02:14:42;61.53;;;22.40;;
12660;SDS011;39039;51.802;5.710;2022-11-21T02:17:10;51.63;;;21.60;;
12660;SDS011;39039;51.802;5.710;2022-11-21T02:19:39;58.53;;;21.93;;
12660;SDS011;39039;51.802;5.710;2022-11-21T02:22:11;59.77;;;21.57;;
12660;SDS011;39039;51.802;5.710;2022-11-21T02:24:56;53.30;;;20.93;;
12660;SDS011;39039;51.802;5.710;2022-11-21T02:27:23;58.10;;;22.77;;
12660;SDS011;39039;51.802;5.710;2022-11-21T02:29:50;72.37;;;23.90;;
12660;SDS011;39039;51.802;5.710;2022-11-21T02:32:21;62.33;;;24.33;;
12660;SDS011;39039;51.802;5.710;2022-11-21T02:34:48;71.60;;;24.70;;
12660;SDS011;39039;51.802;5.710;2022-11-21T02:37:15;61.37;;;24.13;;
12660;SDS011;39039;51.802;5.710;2022-11-21T02:39:42;81.20;;;24.97;;
12660;SDS011;39039;51.802;5.710;2022-11-21T02:42:13;72.27;;;25.60;;
12660;SDS011;39039;51.802;5.710;2022-11-21T02:44:48;75.67;;;24.60;;
12660;SDS011;39039;51.802;5.710;2022-11-21T02:47:21;67.47;;;24.70;;
12660;SDS011;39039;51.802;5.710;2022-11-21T02:49:52;65.03;;;23.50;;
12660;SDS011;39039;51.802;5.710;2022-11-21T02:52:21;63.60;;;23.97;;
12660;SDS011;39039;51.802;5.710;2022-11-21T02:54:48;90.90;;;25.60;;
12660;SDS011;39039;51.802;5.710;2022-11-21T02:57:16;75.70;;;26.77;;
12660;SDS011;39039;51.802;5.710;2022-11-21T02:59:43;73.57;;;27.83;;
12660;SDS011;39039;51.802;5.710;2022-11-21T03:02:10;65.37;;;25.43;;
12660;SDS011;39039;51.802;5.710;2022-11-21T03:04:37;68.27;;;24.93;;
12660;SDS011;39039;51.802;5.710;2022-11-21T03:07:04;70.07;;;24.93;;
12660;SDS011;39039;51.802;5.710;2022-11-21T03:09:31;57.83;;;23.47;;
12660;SDS011;39039;51.802;5.710;2022-11-21T03:12:01;61.43;;;22.27;;
12660;SDS011;39039;51.802;5.710;2022-11-21T03:14:39;56.87;;;23.03;;
12660;SDS011;39039;51.802;5.710;2022-11-21T03:17:07;72.53;;;24.70;;
12660;SDS011;39039;51.802;5.710;2022-11-21T03:19:34;102.13;;;25.90;;
12660;SDS011;39039;51.802;5.710;2022-11-21T03:22:01;52.57;;;22.30;;
12660;SDS011;39039;51.802;5.710;2022-11-21T03:24:31;68.70;;;24.10;;
12660;SDS011;39039;51.802;5.710;2022-11-21T03:26:57;69.13;;;23.33;;
12660;SDS011;39039;51.802;5.710;2022-11-21T03:29:24;56.37;;;20.73;;
12660;SDS011;39039;51.802;5.710;2022-11-21T03:31:53;55.70;;;19.93;;
12660;SDS011;39039;51.802;5.710;2022-11-21T03:34:20;54.27;;;20.73;;
12660;SDS011;39039;51.802;5.710;2022-11-21T03:36:48;53.50;;;21.03;;
12660;SDS011;39039;51.802;5.710;2022-11-21T03:39:15;63.60;;;22.17;;
12660;SDS011;39039;51.802;5.710;2022-11-21T03:41:44;59.27;;;20.17;;
12660;SDS011;39039;51.802;5.710;2022-11-21T03:44:11;53.47;;;20.07;;
12660;SDS011;39039;51.802;5.710;2022-11-21T03:46:39;43.83;;;17.40;;
12660;SDS011;39039;51.802;5.710;2022-11-21T03:49:08;49.93;;;19.23;;
12660;SDS011;39039;51.802;5.710;2022-11-21T03:51:35;48.10;;;19.03;;
12660;SDS011;39039;51.802;5.710;2022-11-21T03:54:03;47.03;;;17.33;;
12660;SDS011;39039;51.802;5.710;2022-11-21T03:56:30;43.77;;;17.47;;
12660;SDS011;39039;51.802;5.710;2022-11-21T03:58:57;48.23;;;17.90;;
12660;SDS011;39039;51.802;5.710;2022-11-21T04:01:24;54.00;;;18.87;;
12660;SDS011;39039;51.802;5.710;2022-11-21T04:03:53;50.07;;;19.07;;
12660;SDS011;39039;51.802;5.710;2022-11-21T04:06:21;49.77;;;20.40;;
12660;SDS011;39039;51.802;5.710;2022-11-21T04:08:49;51.57;;;19.27;;
12660;SDS011;39039;51.802;5.710;2022-11-21T04:11:16;70.60;;;23.10;;
12660;SDS011;39039;51.802;5.710;2022-11-21T04:13:45;89.80;;;25.50;;
12660;SDS011;39039;51.802;5.710;2022-11-21T04:16:12;79.43;;;23.70;;
12660;SDS011;39039;51.802;5.710;2022-11-21T04:18:39;57.00;;;21.73;;
12660;SDS011;39039;51.802;5.710;2022-11-21T04:21:06;95.27;;;26.53;;
12660;SDS011;39039;51.802;5.710;2022-11-21T04:23:35;72.67;;;22.33;;
12660;SDS011;39039;51.802;5.710;2022-11-21T04:26:02;78.53;;;23.00;;
12660;SDS011;39039;51.802;5.710;2022-11-21T04:28:30;54.33;;;21.43;;
12660;SDS011;39039;51.802;5.710;2022-11-21T04:31:00;59.03;;;22.93;;
12660;SDS011;39039;51.802;5.710;2022-11-21T04:33:28;56.37;;;21.17;;
12660;SDS011;39039;51.802;5.710;2022-11-21T04:35:55;67.63;;;22.23;;
12660;SDS011;39039;51.802;5.710;2022-11-21T04:38:24;61.20;;;22.33;;
12660;SDS011;39039;51.802;5.710;2022-11-21T04:40:54;59.07;;;21.40;;
12660;SDS011;39039;51.802;5.710;2022-11-21T04:43:21;114.10;;;27.27;;
12660;SDS011;39039;51.802;5.710;2022-11-21T04:45:49;70.17;;;23.97;;
12660;SDS011;39039;51.802;5.710;2022-11-21T04:48:16;61.60;;;22.53;;
12660;SDS011;39039;51.802;5.710;2022-11-21T04:50:44;78.87;;;23.77;;
12660;SDS011;39039;51.802;5.710;2022-11-21T04:53:12;54.27;;;19.43;;
12660;SDS011;39039;51.802;5.710;2022-11-21T04:55:39;52.30;;;19.90;;
12660;SDS011;39039;51.802;5.710;2022-11-21T04:58:08;58.70;;;20.57;;
12660;SDS011;39039;51.802;5.710;2022-11-21T05:00:37;59.30;;;21.37;;
12660;SDS011;39039;51.802;5.710;2022-11-21T05:03:07;53.03;;;20.03;;
12660;SDS011;39039;51.802;5.710;2022-11-21T05:05:34;55.33;;;21.60;;
12660;SDS011;39039;51.802;5.710;2022-11-21T05:08:02;76.60;;;23.27;;
12660;SDS011;39039;51.802;5.710;2022-11-21T05:10:28;53.67;;;19.77;;
12660;SDS011;39039;51.802;5.710;2022-11-21T05:13:17;56.73;;;21.03;;
12660;SDS011;39039;51.802;5.710;2022-11-21T05:15:46;100.70;;;27.03;;
12660;SDS011;39039;51.802;5.710;2022-11-21T05:18:15;69.10;;;22.47;;
12660;SDS011;39039;51.802;5.710;2022-11-21T05:20:42;174.67;;;31.63;;
12660;SDS011;39039;51.802;5.710;2022-11-21T05:23:09;134.70;;;29.90;;
12660;SDS011;39039;51.802;5.710;2022-11-21T05:25:36;96.93;;;27.23;;
12660;SDS011;39039;51.802;5.710;2022-11-21T05:28:03;68.10;;;25.23;;
12660;SDS011;39039;51.802;5.710;2022-11-21T05:30:34;75.40;;;24.57;;
12660;SDS011;39039;51.802;5.710;2022-11-21T05:33:01;63.00;;;22.67;;
12660;SDS011;39039;51.802;5.710;2022-11-21T05:35:31;138.30;;;29.87;;
12660;SDS011;39039;51.802;5.710;2022-11-21T05:37:58;102.10;;;25.43;;
12660;SDS011;39039;51.802;5.710;2022-11-21T05:40:25;65.63;;;23.40;;
12660;SDS011;39039;51.802;5.710;2022-11-21T05:42:52;103.67;;;27.47;;
12660;SDS011;39039;51.802;5.710;2022-11-21T05:45:38;98.10;;;26.30;;
12660;SDS011;39039;51.802;5.710;2022-11-21T05:48:05;65.77;;;23.47;;
12660;SDS011;39039;51.802;5.710;2022-11-21T05:50:33;66.67;;;23.57;;
12660;SDS011;39039;51.802;5.710;2022-11-21T05:53:03;57.07;;;21.83;;
12660;SDS011;39039;51.802;5.710;2022-11-21T05:55:30;64.63;;;23.50;;
12660;SDS011;39039;51.802;5.710;2022-11-21T05:58:01;66.27;;;23.53;;
12660;SDS011;39039;51.802;5.710;2022-11-21T06:00:28;63.73;;;21.47;;
12660;SDS011;39039;51.802;5.710;2022-11-21T06:02:56;84.40;;;24.53;;
12660;SDS011;39039;51.802;5.710;2022-11-21T06:05:40;72.47;;;23.37;;
12660;SDS011;39039;51.802;5.710;2022-11-21T06:08:07;63.60;;;21.67;;
12660;SDS011;39039;51.802;5.710;2022-11-21T06:10:34;131.43;;;28.80;;
12660;SDS011;39039;51.802;5.710;2022-11-21T06:13:01;90.87;;;26.73;;
12660;SDS011;39039;51.802;5.710;2022-11-21T06:15:48;71.33;;;23.87;;
12660;SDS011;39039;51.802;5.710;2022-11-21T06:18:17;103.30;;;26.27;;
12660;SDS011;39039;51.802;5.710;2022-11-21T06:20:44;74.60;;;23.10;;
12660;SDS011;39039;51.802;5.710;2022-11-21T06:23:11;68.27;;;24.97;;
12660;SDS011;39039;51.802;5.710;2022-11-21T06:25:38;62.87;;;22.10;;
12660;SDS011;39039;51.802;5.710;2022-11-21T06:28:05;60.03;;;22.13;;
12660;SDS011;39039;51.802;5.710;2022-11-21T06:30:32;62.13;;;22.73;;
12660;SDS011;39039;51.802;5.710;2022-11-21T06:33:01;54.87;;;20.70;;
12660;SDS011;39039;51.802;5.710;2022-11-21T06:35:30;119.27;;;28.67;;
12660;SDS011;39039;51.802;5.710;2022-11-21T06:37:57;71.40;;;26.60;;
12660;SDS011;39039;51.802;5.710;2022-11-21T06:40:24;58.40;;;24.23;;
12660;SDS011;39039;51.802;5.710;2022-11-21T06:42:51;67.97;;;23.40;;
12660;SDS011;39039;51.802;5.710;2022-11-21T06:45:18;86.37;;;24.57;;
12660;SDS011;39039;51.802;5.710;2022-11-21T06:47:45;87.33;;;25.80;;
12660;SDS011;39039;51.802;5.710;2022-11-21T06:50:12;73.80;;;25.13;;
12660;SDS011;39039;51.802;5.710;2022-11-21T06:52:40;106.27;;;28.17;;
12660;SDS011;39039;51.802;5.710;2022-11-21T06:55:09;121.13;;;30.67;;
12660;SDS011;39039;51.802;5.710;2022-11-21T06:57:37;167.70;;;32.90;;
12660;SDS011;39039;51.802;5.710;2022-11-21T07:00:04;63.97;;;23.33;;
12660;SDS011;39039;51.802;5.710;2022-11-21T07:02:31;69.87;;;25.27;;
12660;SDS011;39039;51.802;5.710;2022-11-21T07:04:58;130.43;;;29.30;;
12660;SDS011;39039;51.802;5.710;2022-11-21T07:07:25;124.47;;;31.33;;
12660;SDS011;39039;51.802;5.710;2022-11-21T07:09:53;116.10;;;30.23;;
12660;SDS011;39039;51.802;5.710;2022-11-21T07:12:20;72.97;;;25.27;;
12660;SDS011;39039;51.802;5.710;2022-11-21T07:15:05;118.50;;;28.53;;
12660;SDS011;39039;51.802;5.710;2022-11-21T07:17:32;107.70;;;27.67;;
12660;SDS011;39039;51.802;5.710;2022-11-21T07:19:59;65.60;;;25.87;;
12660;SDS011;39039;51.802;5.710;2022-11-21T07:22:32;103.40;;;28.63;;
12660;SDS011;39039;51.802;5.710;2022-11-21T07:25:00;69.67;;;24.53;;
12660;SDS011;39039;51.802;5.710;2022-11-21T07:27:27;119.30;;;29.13;;
12660;SDS011;39039;51.802;5.710;2022-11-21T07:29:55;66.07;;;23.90;;
12660;SDS011;39039;51.802;5.710;2022-11-21T07:32:22;86.30;;;27.53;;
12660;SDS011;39039;51.802;5.710;2022-11-21T07:34:49;64.83;;;23.67;;
12660;SDS011;39039;51.802;5.710;2022-11-21T07:37:17;82.60;;;26.03;;
12660;SDS011;39039;51.802;5.710;2022-11-21T07:39:44;60.83;;;22.53;;
12660;SDS011;39039;51.802;5.710;2022-11-21T07:42:13;63.63;;;23.23;;
12660;SDS011;39039;51.802;5.710;2022-11-21T07:44:40;67.53;;;23.67;;
12660;SDS011;39039;51.802;5.710;2022-11-21T07:47:07;76.63;;;25.53;;
12660;SDS011;39039;51.802;5.710;2022-11-21T07:49:36;54.03;;;21.03;;
12660;SDS011;39039;51.802;5.710;2022-11-21T07:52:03;57.13;;;22.43;;
12660;SDS011;39039;51.802;5.710;2022-11-21T07:54:30;56.20;;;22.93;;
12660;SDS011;39039;51.802;5.710;2022-11-21T07:56:57;96.13;;;26.17;;
12660;SDS011;39039;51.802;5.710;2022-11-21T07:59:26;60.23;;;23.10;;
12660;SDS011;39039;51.802;5.710;2022-11-21T08:01:52;80.17;;;26.57;;
12660;SDS011;39039;51.802;5.710;2022-11-21T08:04:20;116.27;;;27.90;;
12660;SDS011;39039;51.802;5.710;2022-11-21T08:06:47;115.93;;;26.17;;
12660;SDS011;39039;51.802;5.710;2022-11-21T08:09:14;59.70;;;22.73;;
12660;SDS011;39039;51.802;5.710;2022-11-21T08:11:41;68.93;;;22.80;;
12660;SDS011;39039;51.802;5.710;2022-11-21T08:14:08;80.70;;;23.07;;
12660;SDS011;39039;51.802;5.710;2022-11-21T08:16:36;61.60;;;20.77;;
12660;SDS011;39039;51.802;5.710;2022-11-21T08:19:03;55.53;;;21.00;;
12660;SDS011;39039;51.802;5.710;2022-11-21T08:21:30;50.87;;;20.73;;
12660;SDS011;39039;51.802;5.710;2022-11-21T08:23:57;55.40;;;20.43;;
12660;SDS011;39039;51.802;5.710;2022-11-21T08:26:27;63.47;;;22.60;;
12660;SDS011;39039;51.802;5.710;2022-11-21T08:28:54;57.30;;;20.87;;
12660;SDS011;39039;51.802;5.710;2022-11-21T08:31:21;69.87;;;21.43;;
12660;SDS011;39039;51.802;5.710;2022-11-21T08:33:55;61.37;;;20.60;;
12660;SDS011;39039;51.802;5.710;2022-11-21T08:36:22;73.73;;;22.83;;
12660;SDS011;39039;51.802;5.710;2022-11-21T08:38:49;59.70;;;21.17;;
12660;SDS011;39039;51.802;5.710;2022-11-21T08:41:16;73.80;;;21.47;;
12660;SDS011;39039;51.802;5.710;2022-11-21T08:44:01;57.07;;;20.37;;
12660;SDS011;39039;51.802;5.710;2022-11-21T08:46:28;63.30;;;20.53;;
12660;SDS011;39039;51.802;5.710;2022-11-21T08:48:58;78.50;;;22.37;;
12660;SDS011;39039;51.802;5.710;2022-11-21T08:51:28;112.17;;;26.23;;
12660;SDS011;39039;51.802;5.710;2022-11-21T08:53:55;74.67;;;23.17;;
12660;SDS011;39039;51.802;5.710;2022-11-21T08:56:22;79.07;;;24.97;;
12660;SDS011;39039;51.802;5.710;2022-11-21T08:58:49;61.80;;;23.00;;
12660;SDS011;39039;51.802;5.710;2022-11-21T09:01:16;107.87;;;27.03;;
12660;SDS011;39039;51.802;5.710;2022-11-21T09:03:43;94.17;;;26.27;;
12660;SDS011;39039;51.802;5.710;2022-11-21T09:06:11;81.03;;;24.97;;
12660;SDS011;39039;51.802;5.710;2022-11-21T09:08:38;59.97;;;21.40;;
12660;SDS011;39039;51.802;5.710;2022-11-21T09:11:08;64.60;;;23.73;;
12660;SDS011;39039;51.802;5.710;2022-11-21T09:13:35;57.50;;;20.77;;
12660;SDS011;39039;51.802;5.710;2022-11-21T09:16:03;43.83;;;18.17;;
12660;SDS011;39039;51.802;5.710;2022-11-21T09:18:50;40.00;;;19.40;;
12660;SDS011;39039;51.802;5.710;2022-11-21T09:21:19;48.73;;;19.43;;
12660;SDS011;39039;51.802;5.710;2022-11-21T09:23:46;45.50;;;19.13;;
12660;SDS011;39039;51.802;5.710;2022-11-21T09:26:13;78.80;;;24.03;;
12660;SDS011;39039;51.802;5.710;2022-11-21T09:28:40;65.20;;;22.33;;
12660;SDS011;39039;51.802;5.710;2022-11-21T09:31:07;54.97;;;22.07;;
12660;SDS011;39039;51.802;5.710;2022-11-21T09:33:34;53.57;;;20.80;;
12660;SDS011;39039;51.802;5.710;2022-11-21T09:36:04;47.10;;;20.43;;
12660;SDS011;39039;51.802;5.710;2022-11-21T09:38:33;46.63;;;19.93;;
12660;SDS011;39039;51.802;5.710;2022-11-21T09:41:06;47.03;;;19.57;;
12660;SDS011;39039;51.802;5.710;2022-11-21T09:43:59;43.07;;;18.30;;
12660;SDS011;39039;51.802;5.710;2022-11-21T09:46:32;55.50;;;20.30;;
12660;SDS011;39039;51.802;5.710;2022-11-21T09:49:03;40.07;;;18.73;;
12660;SDS011;39039;51.802;5.710;2022-11-21T09:51:31;39.80;;;18.20;;
12660;SDS011;39039;51.802;5.710;2022-11-21T09:54:02;37.53;;;17.43;;
12660;SDS011;39039;51.802;5.710;2022-11-21T09:56:30;34.33;;;15.73;;
12660;SDS011;39039;51.802;5.710;2022-11-21T09:59:05;36.23;;;16.37;;
12660;SDS011;39039;51.802;5.710;2022-11-21T10:01:35;39.13;;;17.07;;
12660;SDS011;39039;51.802;5.710;2022-11-21T10:04:03;38.00;;;16.63;;
12660;SDS011;39039;51.802;5.710;2022-11-21T10:06:30;33.27;;;15.57;;
12660;SDS011;39039;51.802;5.710;2022-11-21T10:09:00;34.73;;;16.60;;
12660;SDS011;39039;51.802;5.710;2022-11-21T10:11:42;38.17;;;16.53;;
12660;SDS011;39039;51.802;5.710;2022-11-21T10:14:31;35.57;;;16.53;;
12660;SDS011;39039;51.802;5.710;2022-11-21T10:17:09;41.13;;;16.67;;
12660;SDS011;39039;51.802;5.710;2022-11-21T10:19:46;35.43;;;16.37;;
12660;SDS011;39039;51.802;5.710;2022-11-21T10:25:07;33.20;;;15.93;;
12660;SDS011;39039;51.802;5.710;2022-11-21T10:27:40;29.80;;;15.17;;
12660;SDS011;39039;51.802;5.710;2022-11-21T10:30:12;27.27;;;13.67;;
12660;SDS011;39039;51.802;5.710;2022-11-21T10:32:46;29.50;;;14.27;;
12660;SDS011;39039;51.802;5.710;2022-11-21T10:35:14;25.70;;;13.60;;
12660;SDS011;39039;51.802;5.710;2022-11-21T10:37:47;27.17;;;12.43;;
12660;SDS011;39039;51.802;5.710;2022-11-21T10:40:19;18.17;;;11.13;;
12660;SDS011;39039;51.802;5.710;2022-11-21T10:42:52;22.57;;;10.73;;
12660;SDS011;39039;51.802;5.710;2022-11-21T10:45:20;22.37;;;10.57;;
12660;SDS011;39039;51.802;5.710;2022-11-21T10:47:48;14.63;;;9.77;;
12660;SDS011;39039;51.802;5.710;2022-11-21T10:50:22;21.13;;;10.50;;
12660;SDS011;39039;51.802;5.710;2022-11-21T10:53:04;19.17;;;10.37;;
12660;SDS011;39039;51.802;5.710;2022-11-21T10:55:57;20.33;;;10.27;;
12660;SDS011;39039;51.802;5.710;2022-11-21T10:58:32;22.63;;;10.57;;
12660;SDS011;39039;51.802;5.710;2022-11-21T11:01:00;18.10;;;9.33;;
12660;SDS011;39039;51.802;5.710;2022-11-21T11:03:27;20.57;;;10.13;;
12660;SDS011;39039;51.802;5.710;2022-11-21T11:05:55;19.63;;;10.37;;
12660;SDS011;39039;51.802;5.710;2022-11-21T11:08:23;22.70;;;9.07;;
12660;SDS011;39039;51.802;5.710;2022-11-21T11:11:02;16.67;;;8.43;;
12660;SDS011;39039;51.802;5.710;2022-11-21T11:13:31;15.97;;;9.77;;
12660;SDS011;39039;51.802;5.710;2022-11-21T11:16:02;14.77;;;8.47;;
12660;SDS011;39039;51.802;5.710;2022-11-21T11:18:30;13.17;;;8.10;;
12660;SDS011;39039;51.802;5.710;2022-11-21T11:21:10;16.53;;;8.43;;
12660;SDS011;39039;51.802;5.710;2022-11-21T11:23:42;14.70;;;8.57;;
12660;SDS011;39039;51.802;5.710;2022-11-21T11:28:53;15.43;;;7.40;;
12660;SDS011;39039;51.802;5.710;2022-11-21T11:31:38;15.97;;;8.33;;
12660;SDS011;39039;51.802;5.710;2022-11-21T11:34:08;15.43;;;7.83;;
12660;SDS011;39039;51.802;5.710;2022-11-21T11:36:37;18.90;;;7.77;;
12660;SDS011;39039;51.802;5.710;2022-11-21T11:39:12;13.13;;;6.90;;
12660;SDS011;39039;51.802;5.710;2022-11-21T11:41:51;12.60;;;7.20;;
12660;SDS011;39039;51.802;5.710;2022-11-21T11:44:41;14.17;;;6.87;;
12660;SDS011;39039;51.802;5.710;2022-11-21T11:47:29;11.17;;;6.97;;
12660;SDS011;39039;51.802;5.710;2022-11-21T11:50:07;13.07;;;6.57;;
12660;SDS011;39039;51.802;5.710;2022-11-21T11:52:42;11.43;;;5.43;;
12660;SDS011;39039;51.802;5.710;2022-11-21T11:55:13;11.47;;;5.83;;
12660;SDS011;39039;51.802;5.710;2022-11-21T11:57:42;10.67;;;5.33;;
12660;SDS011;39039;51.802;5.710;2022-11-21T12:00:16;10.47;;;4.33;;
12660;SDS011;39039;51.802;5.710;2022-11-21T12:02:48;10.23;;;4.70;;
12660;SDS011;39039;51.802;5.710;2022-11-21T12:05:18;16.23;;;5.00;;
12660;SDS011;39039;51.802;5.710;2022-11-21T12:07:47;14.40;;;4.33;;
12660;SDS011;39039;51.802;5.710;2022-11-21T12:10:20;7.97;;;4.03;;
12660;SDS011;39039;51.802;5.710;2022-11-21T12:12:51;11.07;;;4.40;;
12660;SDS011;39039;51.802;5.710;2022-11-21T12:15:24;8.03;;;3.90;;
12660;SDS011;39039;51.802;5.710;2022-11-21T12:18:12;9.77;;;3.90;;
12660;SDS011;39039;51.802;5.710;2022-11-21T12:20:47;8.33;;;3.40;;
12660;SDS011;39039;51.802;5.710;2022-11-21T12:23:20;11.07;;;3.87;;
12660;SDS011;39039;51.802;5.710;2022-11-21T12:25:50;9.67;;;4.00;;
12660;SDS011;39039;51.802;5.710;2022-11-21T12:28:24;7.80;;;3.63;;
12660;SDS011;39039;51.802;5.710;2022-11-21T12:31:01;9.93;;;4.50;;
12660;SDS011;39039;51.802;5.710;2022-11-21T12:33:30;10.93;;;4.37;;
12660;SDS011;39039;51.802;5.710;2022-11-21T12:36:07;9.87;;;4.33;;
12660;SDS011;39039;51.802;5.710;2022-11-21T12:38:48;7.30;;;4.13;;
12660;SDS011;39039;51.802;5.710;2022-11-21T12:41:20;8.00;;;3.93;;
12660;SDS011;39039;51.802;5.710;2022-11-21T12:44:16;8.73;;;4.33;;
12660;SDS011;39039;51.802;5.710;2022-11-21T12:46:49;10.10;;;4.90;;
12660;SDS011;39039;51.802;5.710;2022-11-21T12:49:23;7.37;;;4.47;;
12660;SDS011;39039;51.802;5.710;2022-11-21T12:52:12;9.50;;;5.17;;
12660;SDS011;39039;51.802;5.710;2022-11-21T12:55:04;10.73;;;4.80;;
12660;SDS011;39039;51.802;5.710;2022-11-21T12:57:40;9.40;;;4.43;;
12660;SDS011;39039;51.802;5.710;2022-11-21T13:00:11;11.13;;;4.70;;
12660;SDS011;39039;51.802;5.710;2022-11-21T13:02:46;11.17;;;4.13;;
12660;SDS011;39039;51.802;5.710;2022-11-21T13:05:16;8.90;;;4.00;;
12660;SDS011;39039;51.802;5.710;2022-11-21T13:07:44;11.57;;;4.40;;
12660;SDS011;39039;51.802;5.710;2022-11-21T13:10:15;12.90;;;4.17;;
12660;SDS011;39039;51.802;5.710;2022-11-21T13:12:43;8.27;;;3.50;;
12660;SDS011;39039;51.802;5.710;2022-11-21T13:15:18;9.37;;;3.60;;
12660;SDS011;39039;51.802;5.710;2022-11-21T13:17:50;11.20;;;4.00;;
12660;SDS011;39039;51.802;5.710;2022-11-21T13:20:22;7.00;;;3.60;;
12660;SDS011;39039;51.802;5.710;2022-11-21T13:22:52;7.10;;;3.40;;
12660;SDS011;39039;51.802;5.710;2022-11-21T13:25:34;6.37;;;3.20;;
12660;SDS011;39039;51.802;5.710;2022-11-21T13:31:00;10.90;;;3.80;;
12660;SDS011;39039;51.802;5.710;2022-11-21T13:33:45;9.57;;;3.00;;
12660;SDS011;39039;51.802;5.710;2022-11-21T13:36:13;6.77;;;3.10;;
12660;SDS011;39039;51.802;5.710;2022-11-21T13:42:10;7.27;;;3.07;;
12660;SDS011;39039;51.802;5.710;2022-11-21T13:44:55;9.33;;;3.20;;
12660;SDS011;39039;51.802;5.710;2022-11-21T13:50:12;6.57;;;2.90;;
12660;SDS011;39039;51.802;5.710;2022-11-21T13:52:43;7.47;;;3.30;;
12660;SDS011;39039;51.802;5.710;2022-11-21T13:55:17;9.50;;;3.67;;
12660;SDS011;39039;51.802;5.710;2022-11-21T13:57:53;7.57;;;3.10;;
12660;SDS011;39039;51.802;5.710;2022-11-21T14:03:22;4.97;;;2.87;;
12660;SDS011;39039;51.802;5.710;2022-11-21T14:06:02;5.90;;;3.33;;
12660;SDS011;39039;51.802;5.710;2022-11-21T14:08:35;8.63;;;3.30;;
12660;SDS011;39039;51.802;5.710;2022-11-21T14:11:17;9.30;;;3.77;;
12660;SDS011;39039;51.802;5.710;2022-11-21T14:13:45;9.93;;;3.50;;
12660;SDS011;39039;51.802;5.710;2022-11-21T14:16:17;10.37;;;4.17;;
12660;SDS011;39039;51.802;5.710;2022-11-21T14:18:47;7.90;;;3.80;;
12660;SDS011;39039;51.802;5.710;2022-11-21T14:21:19;6.13;;;3.40;;
12660;SDS011;39039;51.802;5.710;2022-11-21T14:23:47;7.90;;;4.10;;
12660;SDS011;39039;51.802;5.710;2022-11-21T14:26:15;8.07;;;3.83;;
12660;SDS011;39039;51.802;5.710;2022-11-21T14:28:44;5.93;;;3.20;;
12660;SDS011;39039;51.802;5.710;2022-11-21T14:31:11;7.47;;;3.27;;
12660;SDS011;39039;51.802;5.710;2022-11-21T14:33:39;8.47;;;3.60;;
12660;SDS011;39039;51.802;5.710;2022-11-21T14:36:07;5.67;;;2.97;;
12660;SDS011;39039;51.802;5.710;2022-11-21T14:38:40;11.50;;;3.33;;
12660;SDS011;39039;51.802;5.710;2022-11-21T14:41:21;9.47;;;3.53;;
12660;SDS011;39039;51.802;5.710;2022-11-21T14:43:49;9.37;;;3.03;;
12660;SDS011;39039;51.802;5.710;2022-11-21T14:46:30;9.17;;;3.50;;
12660;SDS011;39039;51.802;5.710;2022-11-21T14:49:15;7.63;;;3.30;;
12660;SDS011;39039;51.802;5.710;2022-11-21T14:51:44;7.23;;;2.70;;
12660;SDS011;39039;51.802;5.710;2022-11-21T14:54:15;9.87;;;3.37;;
12660;SDS011;39039;51.802;5.710;2022-11-21T14:56:42;5.47;;;2.40;;
12660;SDS011;39039;51.802;5.710;2022-11-21T14:59:12;4.40;;;2.57;;
12660;SDS011;39039;51.802;5.710;2022-11-21T15:01:40;10.80;;;3.23;;